sensor_id;sensor_type;location;lat;lon;timestamp;temperature;humidity
8780;DHT22;62328;51.19929245;4.42130175;2023-08-06T00:01:35;16.00;99.90
8780;DHT22;62328;51.19929245;4.42130175;2023-08-06T00:04:02;16.00;99.90
8780;DHT22;62328;51.19929245;4.42130175;2023-08-06T00:06:29;16.00;99.90
8780;DHT22;62328;51.19929245;4.42130175;2023-08-06T00:08:56;15.90;99.90
8780;DHT22;62328;51.19929245;4.42130175;2023-08-06T00:11:23;15.90;99.90
8780;DHT22;62328;51.19929245;4.42130175;2023-08-06T00:13:50;16.00;99.90
8780;DHT22;62328;51.19929245;4.42130175;2023-08-06T00:16:18;15.90;99.90
8780;DHT22;62328;51.19929245;4.42130175;2023-08-06T00:18:45;15.90;99.90
8780;DHT22;62328;51.19929245;4.42130175;2023-08-06T00:21:12;15.90;99.90
8780;DHT22;62328;51.19929245;4.42130175;2023-08-06T00:23:39;15.90;99.90
8780;DHT22;62328;51.19929245;4.42130175;2023-08-06T00:26:06;16.00;99.90
8780;DHT22;62328;51.19929245;4.42130175;2023-08-06T00:28:33;15.90;99.90
8780;DHT22;62328;51.19929245;4.42130175;2023-08-06T00:30:59;15.90;99.90
8780;DHT22;62328;51.19929245;4.42130175;2023-08-06T00:33:28;16.00;99.90
8780;DHT22;62328;51.19929245;4.42130175;2023-08-06T00:35:54;15.90;99.90
8780;DHT22;62328;51.19929245;4.42130175;2023-08-06T00:38:21;16.00;99.90
8780;DHT22;62328;51.19929245;4.42130175;2023-08-06T00:40:48;16.00;99.90
8780;DHT22;62328;51.19929245;4.42130175;2023-08-06T00:43:15;15.90;99.90
8780;DHT22;62328;51.19929245;4.42130175;2023-08-06T00:45:43;15.90;99.90
8780;DHT22;62328;51.19929245;4.42130175;2023-08-06T00:48:10;15.90;99.90
8780;DHT22;62328;51.19929245;4.42130175;2023-08-06T00:50:39;15.90;99.90
8780;DHT22;62328;51.19929245;4.42130175;2023-08-06T00:53:06;15.90;99.90
8780;DHT22;62328;51.19929245;4.42130175;2023-08-06T00:55:33;15.90;99.90
8780;DHT22;62328;51.19929245;4.42130175;2023-08-06T00:58:01;15.90;99.90
8780;DHT22;62328;51.19929245;4.42130175;2023-08-06T01:00:28;15.90;99.90
8780;DHT22;62328;51.19929245;4.42130175;2023-08-06T01:02:56;16.00;99.90
8780;DHT22;62328;51.19929245;4.42130175;2023-08-06T01:05:23;15.90;99.90
8780;DHT22;62328;51.19929245;4.42130175;2023-08-06T01:08:03;16.00;99.90
8780;DHT22;62328;51.19929245;4.42130175;2023-08-06T01:10:45;16.00;99.90
8780;DHT22;62328;51.19929245;4.42130175;2023-08-06T01:13:24;16.00;99.90
8780;DHT22;62328;51.19929245;4.42130175;2023-08-06T01:15:55;16.00;99.90
8780;DHT22;62328;51.19929245;4.42130175;2023-08-06T01:18:23;15.90;99.90
8780;DHT22;62328;51.19929245;4.42130175;2023-08-06T01:20:51;15.90;99.90
8780;DHT22;62328;51.19929245;4.42130175;2023-08-06T01:23:18;15.90;99.90
8780;DHT22;62328;51.19929245;4.42130175;2023-08-06T01:25:49;16.00;99.90
8780;DHT22;62328;51.19929245;4.42130175;2023-08-06T01:28:27;15.90;99.90
8780;DHT22;62328;51.19929245;4.42130175;2023-08-06T01:31:02;16.00;99.90
8780;DHT22;62328;51.19929245;4.42130175;2023-08-06T01:33:32;16.00;99.90
8780;DHT22;62328;51.19929245;4.42130175;2023-08-06T01:36:03;16.00;99.90
8780;DHT22;62328;51.19929245;4.42130175;2023-08-06T01:38:30;16.00;99.90
8780;DHT22;62328;51.19929245;4.42130175;2023-08-06T01:40:57;16.00;99.90
8780;DHT22;62328;51.19929245;4.42130175;2023-08-06T01:43:24;16.00;99.90
8780;DHT22;62328;51.19929245;4.42130175;2023-08-06T01:45:51;16.10;99.90
8780;DHT22;62328;51.19929245;4.42130175;2023-08-06T01:48:18;16.00;99.90
8780;DHT22;62328;51.19929245;4.42130175;2023-08-06T01:50:45;16.00;99.90
8780;DHT22;62328;51.19929245;4.42130175;2023-08-06T01:53:13;16.00;99.90
8780;DHT22;62328;51.19929245;4.42130175;2023-08-06T01:55:40;16.00;99.90
8780;DHT22;62328;51.19929245;4.42130175;2023-08-06T01:58:06;16.00;99.90
8780;DHT22;62328;51.19929245;4.42130175;2023-08-06T02:00:33;16.00;99.90
8780;DHT22;62328;51.19929245;4.42130175;2023-08-06T02:02:59;16.00;99.90
8780;DHT22;62328;51.19929245;4.42130175;2023-08-06T02:05:26;15.90;99.90
8780;DHT22;62328;51.19929245;4.42130175;2023-08-06T02:07:53;15.90;99.90
8780;DHT22;62328;51.19929245;4.42130175;2023-08-06T02:10:22;15.90;99.90
8780;DHT22;62328;51.19929245;4.42130175;2023-08-06T02:12:48;15.90;99.90
8780;DHT22;62328;51.19929245;4.42130175;2023-08-06T02:15:16;15.90;99.90
8780;DHT22;62328;51.19929245;4.42130175;2023-08-06T02:17:42;15.80;99.90
8780;DHT22;62328;51.19929245;4.42130175;2023-08-06T02:20:10;15.90;99.90
8780;DHT22;62328;51.19929245;4.42130175;2023-08-06T02:22:37;15.90;99.90
8780;DHT22;62328;51.19929245;4.42130175;2023-08-06T02:25:04;15.90;99.90
8780;DHT22;62328;51.19929245;4.42130175;2023-08-06T02:27:33;15.90;99.90
8780;DHT22;62328;51.19929245;4.42130175;2023-08-06T02:30:00;15.80;99.90
8780;DHT22;62328;51.19929245;4.42130175;2023-08-06T02:32:28;15.90;99.90
8780;DHT22;62328;51.19929245;4.42130175;2023-08-06T02:34:57;15.90;99.90
8780;DHT22;62328;51.19929245;4.42130175;2023-08-06T02:37:24;15.80;99.90
8780;DHT22;62328;51.19929245;4.42130175;2023-08-06T02:39:51;15.80;99.90
8780;DHT22;62328;51.19929245;4.42130175;2023-08-06T02:42:17;15.80;99.90
8780;DHT22;62328;51.19929245;4.42130175;2023-08-06T02:44:46;15.80;99.90
8780;DHT22;62328;51.19929245;4.42130175;2023-08-06T02:47:13;15.80;99.90
8780;DHT22;62328;51.19929245;4.42130175;2023-08-06T02:49:40;15.80;99.90
8780;DHT22;62328;51.19929245;4.42130175;2023-08-06T02:52:07;15.80;99.90
8780;DHT22;62328;51.19929245;4.42130175;2023-08-06T02:54:34;15.80;99.90
8780;DHT22;62328;51.19929245;4.42130175;2023-08-06T02:57:01;15.80;99.90
8780;DHT22;62328;51.19929245;4.42130175;2023-08-06T02:59:28;15.80;99.90
8780;DHT22;62328;51.19929245;4.42130175;2023-08-06T03:01:56;15.80;99.90
8780;DHT22;62328;51.19929245;4.42130175;2023-08-06T03:04:23;15.80;99.90
8780;DHT22;62328;51.19929245;4.42130175;2023-08-06T03:06:50;15.80;99.90
8780;DHT22;62328;51.19929245;4.42130175;2023-08-06T03:09:17;15.80;99.90
8780;DHT22;62328;51.19929245;4.42130175;2023-08-06T03:11:44;15.80;99.90
8780;DHT22;62328;51.19929245;4.42130175;2023-08-06T03:14:11;15.80;99.90
8780;DHT22;62328;51.19929245;4.42130175;2023-08-06T03:16:38;15.80;99.90
8780;DHT22;62328;51.19929245;4.42130175;2023-08-06T03:19:06;15.80;99.90
8780;DHT22;62328;51.19929245;4.42130175;2023-08-06T03:21:33;15.80;99.90
8780;DHT22;62328;51.19929245;4.42130175;2023-08-06T03:24:00;15.80;99.90
8780;DHT22;62328;51.19929245;4.42130175;2023-08-06T03:26:27;15.80;99.90
8780;DHT22;62328;51.19929245;4.42130175;2023-08-06T03:28:54;15.80;99.90
8780;DHT22;62328;51.19929245;4.42130175;2023-08-06T03:31:21;15.80;99.90
8780;DHT22;62328;51.19929245;4.42130175;2023-08-06T03:33:48;15.80;99.90
8780;DHT22;62328;51.19929245;4.42130175;2023-08-06T03:36:16;15.90;99.90
8780;DHT22;62328;51.19929245;4.42130175;2023-08-06T03:38:43;15.90;99.90
8780;DHT22;62328;51.19929245;4.42130175;2023-08-06T03:41:10;15.80;99.90
8780;DHT22;62328;51.19929245;4.42130175;2023-08-06T03:43:37;15.80;99.90
8780;DHT22;62328;51.19929245;4.42130175;2023-08-06T03:46:03;15.80;99.90
8780;DHT22;62328;51.19929245;4.42130175;2023-08-06T03:48:30;15.80;99.90
8780;DHT22;62328;51.19929245;4.42130175;2023-08-06T03:50:57;15.80;99.90
8780;DHT22;62328;51.19929245;4.42130175;2023-08-06T03:53:27;15.80;99.90
8780;DHT22;62328;51.19929245;4.42130175;2023-08-06T03:55:54;15.80;99.90
8780;DHT22;62328;51.19929245;4.42130175;2023-08-06T03:58:25;15.70;99.90
8780;DHT22;62328;51.19929245;4.42130175;2023-08-06T04:00:58;15.80;99.90
8780;DHT22;62328;51.19929245;4.42130175;2023-08-06T04:03:25;15.80;99.90
8780;DHT22;62328;51.19929245;4.42130175;2023-08-06T04:05:52;15.80;99.90
8780;DHT22;62328;51.19929245;4.42130175;2023-08-06T04:08:19;15.80;99.90
8780;DHT22;62328;51.19929245;4.42130175;2023-08-06T04:10:51;15.70;99.90
8780;DHT22;62328;51.19929245;4.42130175;2023-08-06T04:13:18;15.70;99.90
8780;DHT22;62328;51.19929245;4.42130175;2023-08-06T04:15:45;15.70;99.90
8780;DHT22;62328;51.19929245;4.42130175;2023-08-06T04:18:13;15.70;99.90
8780;DHT22;62328;51.19929245;4.42130175;2023-08-06T04:20:43;15.70;99.90
8780;DHT22;62328;51.19929245;4.42130175;2023-08-06T04:23:10;15.70;99.90
8780;DHT22;62328;51.19929245;4.42130175;2023-08-06T04:25:37;15.70;99.90
8780;DHT22;62328;51.19929245;4.42130175;2023-08-06T04:28:06;15.70;99.90
8780;DHT22;62328;51.19929245;4.42130175;2023-08-06T04:30:33;15.60;99.90
8780;DHT22;62328;51.19929245;4.42130175;2023-08-06T04:33:00;15.60;99.90
8780;DHT22;62328;51.19929245;4.42130175;2023-08-06T04:35:27;15.50;99.90
8780;DHT22;62328;51.19929245;4.42130175;2023-08-06T04:37:53;15.50;99.90
8780;DHT22;62328;51.19929245;4.42130175;2023-08-06T04:40:20;15.40;99.90
8780;DHT22;62328;51.19929245;4.42130175;2023-08-06T04:42:47;15.30;99.90
8780;DHT22;62328;51.19929245;4.42130175;2023-08-06T04:45:16;15.30;99.90
8780;DHT22;62328;51.19929245;4.42130175;2023-08-06T04:47:43;15.20;99.90
8780;DHT22;62328;51.19929245;4.42130175;2023-08-06T04:50:09;15.20;99.90
8780;DHT22;62328;51.19929245;4.42130175;2023-08-06T04:52:37;15.20;99.90
8780;DHT22;62328;51.19929245;4.42130175;2023-08-06T04:55:05;15.20;99.90
8780;DHT22;62328;51.19929245;4.42130175;2023-08-06T04:57:32;15.20;99.90
8780;DHT22;62328;51.19929245;4.42130175;2023-08-06T05:00:02;15.20;99.90
8780;DHT22;62328;51.19929245;4.42130175;2023-08-06T05:02:31;15.20;99.90
8780;DHT22;62328;51.19929245;4.42130175;2023-08-06T05:05:00;15.20;99.90
8780;DHT22;62328;51.19929245;4.42130175;2023-08-06T05:07:27;15.20;99.90
8780;DHT22;62328;51.19929245;4.42130175;2023-08-06T05:09:54;15.20;99.90
8780;DHT22;62328;51.19929245;4.42130175;2023-08-06T05:12:21;15.20;99.90
8780;DHT22;62328;51.19929245;4.42130175;2023-08-06T05:14:48;15.20;99.90
8780;DHT22;62328;51.19929245;4.42130175;2023-08-06T05:17:15;15.20;99.90
8780;DHT22;62328;51.19929245;4.42130175;2023-08-06T05:19:43;15.20;99.90
8780;DHT22;62328;51.19929245;4.42130175;2023-08-06T05:22:11;15.10;99.90
8780;DHT22;62328;51.19929245;4.42130175;2023-08-06T05:24:39;15.10;99.90
8780;DHT22;62328;51.19929245;4.42130175;2023-08-06T05:27:06;15.10;99.90
8780;DHT22;62328;51.19929245;4.42130175;2023-08-06T05:29:33;15.10;99.90
8780;DHT22;62328;51.19929245;4.42130175;2023-08-06T05:32:00;15.20;99.90
8780;DHT22;62328;51.19929245;4.42130175;2023-08-06T05:34:27;15.10;99.90
8780;DHT22;62328;51.19929245;4.42130175;2023-08-06T05:36:55;15.10;99.90
8780;DHT22;62328;51.19929245;4.42130175;2023-08-06T05:39:22;15.10;99.90
8780;DHT22;62328;51.19929245;4.42130175;2023-08-06T05:41:49;15.00;99.90
8780;DHT22;62328;51.19929245;4.42130175;2023-08-06T05:44:17;15.10;99.90
8780;DHT22;62328;51.19929245;4.42130175;2023-08-06T05:46:44;15.10;99.90
8780;DHT22;62328;51.19929245;4.42130175;2023-08-06T05:49:11;15.10;99.90
8780;DHT22;62328;51.19929245;4.42130175;2023-08-06T05:51:39;15.10;99.90
8780;DHT22;62328;51.19929245;4.42130175;2023-08-06T05:54:07;15.10;99.90
8780;DHT22;62328;51.19929245;4.42130175;2023-08-06T05:56:34;15.10;99.90
8780;DHT22;62328;51.19929245;4.42130175;2023-08-06T05:59:01;15.10;99.90
8780;DHT22;62328;51.19929245;4.42130175;2023-08-06T06:01:28;15.10;99.90
8780;DHT22;62328;51.19929245;4.42130175;2023-08-06T06:03:55;15.10;99.90
8780;DHT22;62328;51.19929245;4.42130175;2023-08-06T06:06:22;15.10;99.90
8780;DHT22;62328;51.19929245;4.42130175;2023-08-06T06:08:49;15.10;99.90
8780;DHT22;62328;51.19929245;4.42130175;2023-08-06T06:11:18;15.10;99.90
8780;DHT22;62328;51.19929245;4.42130175;2023-08-06T06:13:48;15.10;99.90
8780;DHT22;62328;51.19929245;4.42130175;2023-08-06T06:16:15;15.10;99.90
8780;DHT22;62328;51.19929245;4.42130175;2023-08-06T06:18:42;15.10;99.90
8780;DHT22;62328;51.19929245;4.42130175;2023-08-06T06:21:10;15.00;99.90
8780;DHT22;62328;51.19929245;4.42130175;2023-08-06T06:23:37;15.10;99.90
8780;DHT22;62328;51.19929245;4.42130175;2023-08-06T06:26:04;15.00;99.90
8780;DHT22;62328;51.19929245;4.42130175;2023-08-06T06:28:32;15.00;99.90
8780;DHT22;62328;51.19929245;4.42130175;2023-08-06T06:31:00;15.00;99.90
8780;DHT22;62328;51.19929245;4.42130175;2023-08-06T06:33:27;15.00;99.90
8780;DHT22;62328;51.19929245;4.42130175;2023-08-06T06:35:54;15.00;99.90
8780;DHT22;62328;51.19929245;4.42130175;2023-08-06T06:38:21;15.00;99.90
8780;DHT22;62328;51.19929245;4.42130175;2023-08-06T06:40:53;15.00;99.90
8780;DHT22;62328;51.19929245;4.42130175;2023-08-06T06:43:20;15.00;99.90
8780;DHT22;62328;51.19929245;4.42130175;2023-08-06T06:45:52;15.00;99.90
8780;DHT22;62328;51.19929245;4.42130175;2023-08-06T06:48:21;15.00;99.90
8780;DHT22;62328;51.19929245;4.42130175;2023-08-06T06:50:48;15.00;99.90
8780;DHT22;62328;51.19929245;4.42130175;2023-08-06T06:53:15;15.10;99.90
8780;DHT22;62328;51.19929245;4.42130175;2023-08-06T06:55:42;15.10;99.90
8780;DHT22;62328;51.19929245;4.42130175;2023-08-06T06:58:09;15.10;99.90
8780;DHT22;62328;51.19929245;4.42130175;2023-08-06T07:00:36;15.10;99.90
8780;DHT22;62328;51.19929245;4.42130175;2023-08-06T07:03:05;15.10;99.90
8780;DHT22;62328;51.19929245;4.42130175;2023-08-06T07:05:32;15.10;99.90
8780;DHT22;62328;51.19929245;4.42130175;2023-08-06T07:08:02;15.20;99.90
8780;DHT22;62328;51.19929245;4.42130175;2023-08-06T07:10:30;15.10;99.90
8780;DHT22;62328;51.19929245;4.42130175;2023-08-06T07:12:57;15.10;99.90
8780;DHT22;62328;51.19929245;4.42130175;2023-08-06T07:15:24;15.20;99.90
8780;DHT22;62328;51.19929245;4.42130175;2023-08-06T07:17:50;15.20;99.90
8780;DHT22;62328;51.19929245;4.42130175;2023-08-06T07:20:19;15.20;99.90
8780;DHT22;62328;51.19929245;4.42130175;2023-08-06T07:22:46;15.20;99.90
8780;DHT22;62328;51.19929245;4.42130175;2023-08-06T07:25:13;15.20;99.90
8780;DHT22;62328;51.19929245;4.42130175;2023-08-06T07:27:40;15.30;99.90
8780;DHT22;62328;51.19929245;4.42130175;2023-08-06T07:30:07;15.30;99.90
8780;DHT22;62328;51.19929245;4.42130175;2023-08-06T07:32:34;15.30;99.90
8780;DHT22;62328;51.19929245;4.42130175;2023-08-06T07:35:01;15.30;99.90
8780;DHT22;62328;51.19929245;4.42130175;2023-08-06T07:37:30;15.10;99.90
8780;DHT22;62328;51.19929245;4.42130175;2023-08-06T07:39:56;15.30;99.90
8780;DHT22;62328;51.19929245;4.42130175;2023-08-06T07:42:23;15.30;99.90
8780;DHT22;62328;51.19929245;4.42130175;2023-08-06T07:44:52;15.30;99.90
8780;DHT22;62328;51.19929245;4.42130175;2023-08-06T07:47:19;15.30;99.90
8780;DHT22;62328;51.19929245;4.42130175;2023-08-06T07:49:46;15.30;99.90
8780;DHT22;62328;51.19929245;4.42130175;2023-08-06T07:52:13;15.30;99.90
8780;DHT22;62328;51.19929245;4.42130175;2023-08-06T07:54:41;15.30;99.90
8780;DHT22;62328;51.19929245;4.42130175;2023-08-06T07:57:08;15.40;99.90
8780;DHT22;62328;51.19929245;4.42130175;2023-08-06T07:59:35;15.40;99.90
8780;DHT22;62328;51.19929245;4.42130175;2023-08-06T08:02:03;15.40;99.90
8780;DHT22;62328;51.19929245;4.42130175;2023-08-06T08:04:30;15.40;99.90
8780;DHT22;62328;51.19929245;4.42130175;2023-08-06T08:06:56;15.50;99.90
8780;DHT22;62328;51.19929245;4.42130175;2023-08-06T08:09:24;15.50;99.90
8780;DHT22;62328;51.19929245;4.42130175;2023-08-06T08:11:52;15.50;99.90
8780;DHT22;62328;51.19929245;4.42130175;2023-08-06T08:14:19;15.60;99.90
8780;DHT22;62328;51.19929245;4.42130175;2023-08-06T08:16:46;15.60;99.90
8780;DHT22;62328;51.19929245;4.42130175;2023-08-06T08:19:12;15.60;99.90
8780;DHT22;62328;51.19929245;4.42130175;2023-08-06T08:21:39;15.60;99.90
8780;DHT22;62328;51.19929245;4.42130175;2023-08-06T08:24:06;15.60;99.90
8780;DHT22;62328;51.19929245;4.42130175;2023-08-06T08:26:33;15.60;99.90
8780;DHT22;62328;51.19929245;4.42130175;2023-08-06T08:29:01;15.60;99.90
8780;DHT22;62328;51.19929245;4.42130175;2023-08-06T08:31:28;15.70;99.90
8780;DHT22;62328;51.19929245;4.42130175;2023-08-06T08:33:55;15.60;99.90
8780;DHT22;62328;51.19929245;4.42130175;2023-08-06T08:36:23;15.70;99.90
8780;DHT22;62328;51.19929245;4.42130175;2023-08-06T08:38:50;15.70;99.90
8780;DHT22;62328;51.19929245;4.42130175;2023-08-06T08:41:20;15.70;99.90
8780;DHT22;62328;51.19929245;4.42130175;2023-08-06T08:43:49;15.70;99.90
8780;DHT22;62328;51.19929245;4.42130175;2023-08-06T08:46:18;15.80;99.90
8780;DHT22;62328;51.19929245;4.42130175;2023-08-06T08:48:46;15.80;99.90
8780;DHT22;62328;51.19929245;4.42130175;2023-08-06T08:51:13;15.80;99.90
8780;DHT22;62328;51.19929245;4.42130175;2023-08-06T08:53:42;15.80;99.90
8780;DHT22;62328;51.19929245;4.42130175;2023-08-06T08:56:11;15.90;99.90
8780;DHT22;62328;51.19929245;4.42130175;2023-08-06T08:58:39;15.90;99.90
8780;DHT22;62328;51.19929245;4.42130175;2023-08-06T09:01:07;15.90;99.90
8780;DHT22;62328;51.19929245;4.42130175;2023-08-06T09:03:37;15.90;99.90
8780;DHT22;62328;51.19929245;4.42130175;2023-08-06T09:06:04;15.90;99.90
8780;DHT22;62328;51.19929245;4.42130175;2023-08-06T09:08:36;15.90;99.90
8780;DHT22;62328;51.19929245;4.42130175;2023-08-06T09:11:04;15.80;99.90
8780;DHT22;62328;51.19929245;4.42130175;2023-08-06T09:13:31;15.80;99.90
8780;DHT22;62328;51.19929245;4.42130175;2023-08-06T09:15:58;15.80;99.90
8780;DHT22;62328;51.19929245;4.42130175;2023-08-06T09:18:26;15.80;99.90
8780;DHT22;62328;51.19929245;4.42130175;2023-08-06T09:20:56;15.80;99.90
8780;DHT22;62328;51.19929245;4.42130175;2023-08-06T09:23:27;15.60;99.90
8780;DHT22;62328;51.19929245;4.42130175;2023-08-06T09:25:56;15.70;99.90
8780;DHT22;62328;51.19929245;4.42130175;2023-08-06T09:28:23;15.60;99.90
8780;DHT22;62328;51.19929245;4.42130175;2023-08-06T09:30:53;15.70;99.90
8780;DHT22;62328;51.19929245;4.42130175;2023-08-06T09:33:22;15.60;99.90
8780;DHT22;62328;51.19929245;4.42130175;2023-08-06T09:35:49;15.60;99.90
8780;DHT22;62328;51.19929245;4.42130175;2023-08-06T09:38:18;15.60;99.90
8780;DHT22;62328;51.19929245;4.42130175;2023-08-06T09:40:44;15.60;99.90
8780;DHT22;62328;51.19929245;4.42130175;2023-08-06T09:43:12;15.60;99.90
8780;DHT22;62328;51.19929245;4.42130175;2023-08-06T09:45:39;15.60;99.90
8780;DHT22;62328;51.19929245;4.42130175;2023-08-06T09:48:08;15.60;99.90
8780;DHT22;62328;51.19929245;4.42130175;2023-08-06T09:50:36;15.50;99.90
8780;DHT22;62328;51.19929245;4.42130175;2023-08-06T09:53:05;15.40;99.90
8780;DHT22;62328;51.19929245;4.42130175;2023-08-06T09:55:34;15.40;99.90
8780;DHT22;62328;51.19929245;4.42130175;2023-08-06T09:58:01;15.30;99.90
8780;DHT22;62328;51.19929245;4.42130175;2023-08-06T10:00:29;15.30;99.90
8780;DHT22;62328;51.19929245;4.42130175;2023-08-06T10:03:00;15.20;99.90
8780;DHT22;62328;51.19929245;4.42130175;2023-08-06T10:05:27;15.20;99.90
8780;DHT22;62328;51.19929245;4.42130175;2023-08-06T10:07:55;15.20;99.90
8780;DHT22;62328;51.19929245;4.42130175;2023-08-06T10:10:24;15.20;99.90
8780;DHT22;62328;51.19929245;4.42130175;2023-08-06T10:12:55;15.20;99.90
8780;DHT22;62328;51.19929245;4.42130175;2023-08-06T10:15:26;15.20;99.90
8780;DHT22;62328;51.19929245;4.42130175;2023-08-06T10:17:56;15.20;99.90
8780;DHT22;62328;51.19929245;4.42130175;2023-08-06T10:20:24;15.20;99.90
8780;DHT22;62328;51.19929245;4.42130175;2023-08-06T10:23:01;15.30;99.90
8780;DHT22;62328;51.19929245;4.42130175;2023-08-06T10:25:31;15.30;99.90
8780;DHT22;62328;51.19929245;4.42130175;2023-08-06T10:28:00;15.40;99.90
8780;DHT22;62328;51.19929245;4.42130175;2023-08-06T10:30:28;15.40;99.90
8780;DHT22;62328;51.19929245;4.42130175;2023-08-06T10:32:57;15.40;99.90
8780;DHT22;62328;51.19929245;4.42130175;2023-08-06T10:35:30;15.50;99.90
8780;DHT22;62328;51.19929245;4.42130175;2023-08-06T10:37:59;15.50;99.90
8780;DHT22;62328;51.19929245;4.42130175;2023-08-06T10:40:26;15.50;99.90
8780;DHT22;62328;51.19929245;4.42130175;2023-08-06T10:42:55;15.60;99.90
8780;DHT22;62328;51.19929245;4.42130175;2023-08-06T10:45:23;15.60;99.90
8780;DHT22;62328;51.19929245;4.42130175;2023-08-06T10:47:54;15.50;99.90
8780;DHT22;62328;51.19929245;4.42130175;2023-08-06T10:50:22;15.40;99.90
8780;DHT22;62328;51.19929245;4.42130175;2023-08-06T10:52:49;15.20;99.90
8780;DHT22;62328;51.19929245;4.42130175;2023-08-06T10:55:23;15.40;99.90
8780;DHT22;62328;51.19929245;4.42130175;2023-08-06T10:57:50;15.40;99.90
8780;DHT22;62328;51.19929245;4.42130175;2023-08-06T11:00:17;15.50;99.90
8780;DHT22;62328;51.19929245;4.42130175;2023-08-06T11:02:47;15.40;99.90
8780;DHT22;62328;51.19929245;4.42130175;2023-08-06T11:05:14;15.50;99.90
8780;DHT22;62328;51.19929245;4.42130175;2023-08-06T11:07:40;15.50;99.90
8780;DHT22;62328;51.19929245;4.42130175;2023-08-06T11:10:10;15.60;99.90
8780;DHT22;62328;51.19929245;4.42130175;2023-08-06T11:12:37;15.70;99.90
8780;DHT22;62328;51.19929245;4.42130175;2023-08-06T11:15:05;15.70;99.90
8780;DHT22;62328;51.19929245;4.42130175;2023-08-06T11:17:34;15.80;99.90
8780;DHT22;62328;51.19929245;4.42130175;2023-08-06T11:20:03;15.80;99.90
8780;DHT22;62328;51.19929245;4.42130175;2023-08-06T11:22:30;15.80;99.90
8780;DHT22;62328;51.19929245;4.42130175;2023-08-06T11:24:57;15.80;99.90
8780;DHT22;62328;51.19929245;4.42130175;2023-08-06T11:27:27;15.80;99.90
8780;DHT22;62328;51.19929245;4.42130175;2023-08-06T11:29:54;15.80;99.90
8780;DHT22;62328;51.19929245;4.42130175;2023-08-06T11:32:21;15.80;99.90
8780;DHT22;62328;51.19929245;4.42130175;2023-08-06T11:34:48;15.80;99.90
8780;DHT22;62328;51.19929245;4.42130175;2023-08-06T11:37:16;15.80;99.90
8780;DHT22;62328;51.19929245;4.42130175;2023-08-06T11:39:47;15.80;99.90
8780;DHT22;62328;51.19929245;4.42130175;2023-08-06T11:42:15;15.70;99.90
8780;DHT22;62328;51.19929245;4.42130175;2023-08-06T11:44:42;15.70;99.90
8780;DHT22;62328;51.19929245;4.42130175;2023-08-06T11:47:13;15.70;99.90
8780;DHT22;62328;51.19929245;4.42130175;2023-08-06T11:49:41;15.70;99.90
8780;DHT22;62328;51.19929245;4.42130175;2023-08-06T11:52:13;15.60;99.90
8780;DHT22;62328;51.19929245;4.42130175;2023-08-06T11:54:42;15.60;99.90
8780;DHT22;62328;51.19929245;4.42130175;2023-08-06T11:57:09;15.60;99.90
8780;DHT22;62328;51.19929245;4.42130175;2023-08-06T11:59:37;15.50;99.90
8780;DHT22;62328;51.19929245;4.42130175;2023-08-06T12:02:05;15.50;99.90
8780;DHT22;62328;51.19929245;4.42130175;2023-08-06T12:04:58;15.50;99.90
8780;DHT22;62328;51.19929245;4.42130175;2023-08-06T12:07:28;15.50;99.90
8780;DHT22;62328;51.19929245;4.42130175;2023-08-06T12:09:56;15.50;99.90
8780;DHT22;62328;51.19929245;4.42130175;2023-08-06T12:12:23;15.50;99.90
8780;DHT22;62328;51.19929245;4.42130175;2023-08-06T12:14:50;15.50;99.90
8780;DHT22;62328;51.19929245;4.42130175;2023-08-06T12:17:17;15.50;99.90
8780;DHT22;62328;51.19929245;4.42130175;2023-08-06T12:19:45;15.50;99.90
8780;DHT22;62328;51.19929245;4.42130175;2023-08-06T12:22:13;15.50;99.90
8780;DHT22;62328;51.19929245;4.42130175;2023-08-06T12:24:40;15.60;99.90
8780;DHT22;62328;51.19929245;4.42130175;2023-08-06T12:27:09;15.60;99.90
8780;DHT22;62328;51.19929245;4.42130175;2023-08-06T12:29:36;15.50;99.90
8780;DHT22;62328;51.19929245;4.42130175;2023-08-06T12:32:04;15.50;99.90
8780;DHT22;62328;51.19929245;4.42130175;2023-08-06T12:34:31;15.60;99.90
8780;DHT22;62328;51.19929245;4.42130175;2023-08-06T12:36:58;15.70;99.90
8780;DHT22;62328;51.19929245;4.42130175;2023-08-06T12:39:25;15.80;99.90
8780;DHT22;62328;51.19929245;4.42130175;2023-08-06T12:41:54;15.80;99.90
8780;DHT22;62328;51.19929245;4.42130175;2023-08-06T12:44:24;15.80;99.90
8780;DHT22;62328;51.19929245;4.42130175;2023-08-06T12:46:51;15.80;99.90
8780;DHT22;62328;51.19929245;4.42130175;2023-08-06T12:49:18;15.70;99.90
8780;DHT22;62328;51.19929245;4.42130175;2023-08-06T12:51:46;15.60;99.90
8780;DHT22;62328;51.19929245;4.42130175;2023-08-06T12:54:13;15.50;99.90
8780;DHT22;62328;51.19929245;4.42130175;2023-08-06T12:56:40;15.40;99.90
8780;DHT22;62328;51.19929245;4.42130175;2023-08-06T12:59:07;15.40;99.90
8780;DHT22;62328;51.19929245;4.42130175;2023-08-06T13:01:36;15.40;99.90
8780;DHT22;62328;51.19929245;4.42130175;2023-08-06T13:04:04;15.30;99.90
8780;DHT22;62328;51.19929245;4.42130175;2023-08-06T13:06:31;15.20;99.90
8780;DHT22;62328;51.19929245;4.42130175;2023-08-06T13:09:01;15.20;99.90
8780;DHT22;62328;51.19929245;4.42130175;2023-08-06T13:11:29;15.10;99.90
8780;DHT22;62328;51.19929245;4.42130175;2023-08-06T13:13:59;15.10;99.90
8780;DHT22;62328;51.19929245;4.42130175;2023-08-06T13:16:26;15.10;99.90
8780;DHT22;62328;51.19929245;4.42130175;2023-08-06T13:18:55;15.00;99.90
8780;DHT22;62328;51.19929245;4.42130175;2023-08-06T13:21:22;15.30;99.90
8780;DHT22;62328;51.19929245;4.42130175;2023-08-06T13:23:49;15.00;99.90
8780;DHT22;62328;51.19929245;4.42130175;2023-08-06T13:26:16;15.00;99.90
8780;DHT22;62328;51.19929245;4.42130175;2023-08-06T13:28:43;15.00;99.90
8780;DHT22;62328;51.19929245;4.42130175;2023-08-06T13:31:10;14.90;99.90
8780;DHT22;62328;51.19929245;4.42130175;2023-08-06T13:33:37;14.90;99.90
8780;DHT22;62328;51.19929245;4.42130175;2023-08-06T13:36:05;14.80;99.90
8780;DHT22;62328;51.19929245;4.42130175;2023-08-06T13:38:32;14.80;99.90